Time;durP1;ratioP1;P1;durP2;ratioP2;P2;SDS_P1;SDS_P2;PMS_P1;PMS_P2;Temp;Humidity;BMP_temperature;BMP_pressure;BME280_temperature;BME280_humidity;BME280_pressure;Samples;Min_cycle;Max_cycle;Signal;HPM_P1;HPM_P2
2021/06/23 00:00:07;;;;;;;33.95;26.38;;;;;;;16.41;100.00;95838.09;1035190;28;20384;-67
2021/06/23 00:00:41;;;;;;;39.80;28.08;;;;;;;16.40;100.00;95839.19;1039020;28;20044;-67
2021/06/23 00:01:11;;;;;;;40.30;27.33;;;;;;;16.38;100.00;95836.03;1038899;28;20036;-69
2021/06/23 00:01:42;;;;;;;38.85;27.17;;;;;;;16.38;100.00;95841.34;1027398;28;20037;-67
2021/06/23 00:02:12;;;;;;;39.03;26.42;;;;;;;16.38;100.00;95836.81;1034608;28;20467;-67
2021/06/23 00:02:42;;;;;;;42.78;27.55;;;;;;;16.42;100.00;95844.94;1030889;28;20357;-68
2021/06/23 00:03:13;;;;;;;44.85;28.15;;;;;;;16.41;100.00;95846.81;1026275;28;20408;-67
2021/06/23 00:03:44;;;;;;;37.60;28.13;;;;;;;16.39;100.00;95838.38;1032112;28;20383;-68
2021/06/23 00:04:14;;;;;;;38.33;27.63;;;;;;;16.41;100.00;95848.69;1022836;28;20031;-66
2021/06/23 00:04:44;;;;;;;29.92;24.00;;;;;;;16.35;100.00;95842.72;1026802;28;20082;-66
2021/06/23 00:05:15;;;;;;;32.10;25.60;;;;;;;16.43;100.00;95851.81;1023208;28;20038;-67
2021/06/23 00:05:46;;;;;;;41.83;28.73;;;;;;;16.40;100.00;95845.25;1027151;28;20058;-66
2021/06/23 00:06:16;;;;;;;45.47;28.75;;;;;;;16.41;100.00;95846.03;1030898;28;20101;-67
2021/06/23 00:06:47;;;;;;;43.17;28.65;;;;;;;16.37;100.00;95839.78;1030896;28;20073;-66
2021/06/23 00:07:17;;;;;;;35.13;25.98;;;;;;;16.37;100.00;95840.56;1030152;28;20049;-67
2021/06/23 00:07:48;;;;;;;52.15;30.30;;;;;;;16.37;100.00;95845.84;1030718;28;20038;-67
2021/06/23 00:08:18;;;;;;;48.35;30.35;;;;;;;16.43;100.00;95849.16;1023025;28;20087;-67
2021/06/23 00:08:51;;;;;;;43.53;28.15;;;;;;;16.37;100.00;95839.78;1028742;28;20027;-67
2021/06/23 00:09:25;;;;;;;44.80;29.55;;;;;;;16.39;100.00;95842.91;1023229;28;20031;-68
2021/06/23 00:09:55;;;;;;;53.75;32.63;;;;;;;16.45;100.00;95852.31;1024511;28;20504;-67
2021/06/23 00:10:25;;;;;;;45.45;30.25;;;;;;;16.43;100.00;95854.47;1026306;28;20030;-68
2021/06/23 00:10:56;;;;;;;48.20;29.65;;;;;;;16.40;100.00;95844.47;1023585;28;20031;-67
2021/06/23 00:11:52;;;;;;;42.97;28.25;;;;;;;16.45;100.00;95852.31;1031046;28;20033;-69
2021/06/23 00:12:23;;;;;;;45.35;29.65;;;;;;;16.45;100.00;95854.97;1034570;28;20438;-68
2021/06/23 00:12:54;;;;;;;41.35;28.60;;;;;;;16.44;100.00;95845.44;1033800;28;20121;-66
2021/06/23 00:13:26;;;;;;;39.00;26.70;;;;;;;16.43;100.00;95846.50;1037358;28;20426;-68
2021/06/23 00:13:57;;;;;;;31.15;24.50;;;;;;;16.42;100.00;95847.59;1026553;28;20030;-68
2021/06/23 00:14:27;;;;;;;31.52;24.05;;;;;;;16.47;100.00;95850.16;1023095;28;20054;-68
2021/06/23 00:15:00;;;;;;;36.13;25.67;;;;;;;16.44;100.00;95850.75;1023351;28;20036;-68
2021/06/23 00:15:31;;;;;;;32.42;22.02;;;;;;;16.42;100.00;95852.91;1026739;28;20026;-67
2021/06/23 00:16:05;;;;;;;46.20;28.23;;;;;;;16.46;100.00;95853.88;1023386;28;20109;-67
2021/06/23 00:16:35;;;;;;;41.67;26.75;;;;;;;16.45;100.00;95854.97;1024903;28;20031;-67
2021/06/23 00:17:09;;;;;;;49.50;29.58;;;;;;;16.45;100.00;95858.38;1026558;28;20516;-68
2021/06/23 00:17:39;;;;;;;37.10;25.63;;;;;;;16.43;100.00;95857.09;1027562;28;20023;-68
2021/06/23 00:18:10;;;;;;;38.78;27.20;;;;;;;16.37;100.00;95856.44;1031643;28;20109;-68
2021/06/23 00:18:40;;;;;;;36.50;25.73;;;;;;;16.36;100.00;95854.06;1031408;28;20530;-67
2021/06/23 00:19:14;;;;;;;39.50;25.90;;;;;;;16.40;100.00;95863.03;1030615;28;20022;-67
2021/06/23 00:19:44;;;;;;;35.08;25.88;;;;;;;16.42;100.00;95872.22;1030622;28;20058;-66
2021/06/23 00:20:15;;;;;;;33.63;23.35;;;;;;;16.41;100.00;95867.22;1022346;28;20031;-68
2021/06/23 00:20:45;;;;;;;27.48;21.55;;;;;;;16.42;100.00;95868.78;1027690;28;20689;-67
2021/06/23 00:21:16;;;;;;;36.75;25.52;;;;;;;16.44;100.00;95864.00;1034862;28;20057;-67
2021/06/23 00:21:46;;;;;;;38.15;25.55;;;;;;;16.41;100.00;95872.53;1030199;28;20065;-67
2021/06/23 00:22:17;;;;;;;34.88;25.08;;;;;;;16.44;100.00;95875.38;1033253;28;20044;-67
2021/06/23 00:22:47;;;;;;;32.03;24.80;;;;;;;16.48;100.00;95872.91;1026747;28;20817;-69
2021/06/23 00:23:18;;;;;;;42.70;27.25;;;;;;;16.46;100.00;95869.75;1026945;28;20124;-68
2021/06/23 00:23:51;;;;;;;29.50;22.38;;;;;;;16.47;100.00;95874.78;1038773;28;20029;-67
2021/06/23 00:24:21;;;;;;;33.55;24.60;;;;;;;16.48;100.00;95879.00;1035253;28;20160;-68
2021/06/23 00:24:52;;;;;;;39.25;26.38;;;;;;;16.43;100.00;95871.16;1034934;28;20443;-67
2021/06/23 00:25:23;;;;;;;38.85;26.58;;;;;;;16.50;100.00;95878.72;1031084;28;20376;-67
2021/06/23 00:25:55;;;;;;;27.85;21.45;;;;;;;16.49;100.00;95879.75;1026243;28;20034;-67
2021/06/23 00:26:25;;;;;;;37.33;25.67;;;;;;;16.49;100.00;95882.41;1018723;29;20106;-67
2021/06/23 00:26:58;;;;;;;41.47;28.02;;;;;;;16.52;100.00;95878.41;1024847;28;20490;-66
2021/06/23 00:27:29;;;;;;;27.80;21.63;;;;;;;16.53;100.00;95880.72;1024513;28;20030;-68
2021/06/23 00:27:59;;;;;;;25.67;20.70;;;;;;;16.47;100.00;95880.06;1026714;28;20027;-68
2021/06/23 00:28:30;;;;;;;28.88;21.73;;;;;;;16.53;100.00;95879.97;1032106;28;20015;-67
2021/06/23 00:29:01;;;;;;;31.10;23.17;;;;;;;16.51;100.00;95888.22;1030712;28;20030;-67
2021/06/23 00:29:32;;;;;;;26.73;22.38;;;;;;;16.49;100.00;95882.41;1034766;28;20406;-67
2021/06/23 00:30:04;;;;;;;28.27;21.45;;;;;;;16.52;100.00;95879.19;1034445;28;20014;-68
2021/06/23 00:30:34;;;;;;;27.70;22.88;;;;;;;16.53;100.00;95883.38;1035545;28;20015;-67
2021/06/23 00:31:05;;;;;;;40.60;27.42;;;;;;;16.54;100.00;95879.69;1035015;28;20021;-67
2021/06/23 00:31:35;;;;;;;40.85;27.40;;;;;;;16.51;100.00;95877.63;1030595;28;20018;-68
2021/06/23 00:32:10;;;;;;;24.38;20.45;;;;;;;16.52;100.00;95887.13;1022600;28;20028;-68
2021/06/23 00:32:41;;;;;;;24.30;20.20;;;;;;;16.55;100.00;95878.59;1022596;29;20023;-67
2021/06/23 00:33:24;;;;;;;25.20;20.75;;;;;;;16.57;100.00;95878.31;1026115;28;20023;-68
2021/06/23 00:33:56;;;;;;;28.70;22.15;;;;;;;16.59;100.00;95878.78;1026718;28;20026;-67
2021/06/23 00:34:26;;;;;;;21.02;18.42;;;;;;;16.53;100.00;95880.72;1031921;28;20026;-68
2021/06/23 00:34:57;;;;;;;27.23;21.33;;;;;;;16.47;100.00;95871.34;1030733;28;20018;-67
2021/06/23 00:35:27;;;;;;;24.05;21.20;;;;;;;16.53;100.00;95880.72;1029232;28;20034;-66
2021/06/23 00:35:58;;;;;;;26.13;20.90;;;;;;;16.52;100.00;95873.88;1031093;28;20022;-66
2021/06/23 00:36:28;;;;;;;28.15;21.17;;;;;;;16.55;100.00;95878.59;1030674;28;20065;-68
2021/06/23 00:36:59;;;;;;;29.08;21.60;;;;;;;16.56;100.00;95872.19;1030295;28;20069;-67
2021/06/23 00:37:29;;;;;;;33.55;23.35;;;;;;;16.56;100.00;95874.84;1030657;28;20015;-67
2021/06/23 00:38:00;;;;;;;26.17;21.10;;;;;;;16.54;100.00;95870.94;1026822;28;20018;-67
2021/06/23 00:38:30;;;;;;;36.85;23.33;;;;;;;16.53;100.00;95875.44;1026246;28;20023;-66
2021/06/23 00:39:01;;;;;;;24.40;20.27;;;;;;;16.52;100.00;95871.22;1029940;28;20023;-67
2021/06/23 00:39:31;;;;;;;26.80;21.63;;;;;;;16.50;100.00;95871.53;1030503;28;20026;-67
2021/06/23 00:40:05;;;;;;;25.23;19.30;;;;;;;16.51;100.00;95869.66;1034736;28;20014;-67
2021/06/23 00:40:35;;;;;;;25.08;19.58;;;;;;;16.46;100.00;95862.63;1038407;28;20029;-68
2021/06/23 00:41:05;;;;;;;25.00;19.17;;;;;;;16.50;100.00;95870.75;1036352;28;20009;-67
2021/06/23 00:41:36;;;;;;;24.98;21.02;;;;;;;16.46;100.00;95869.75;1034754;28;20022;-67
2021/06/23 00:42:10;;;;;;;25.65;19.17;;;;;;;16.44;100.00;95856.03;1032468;28;20022;-70
2021/06/23 00:42:42;;;;;;;29.23;22.10;;;;;;;16.44;100.00;95861.34;1026963;28;20015;-67
2021/06/23 00:43:13;;;;;;;26.40;20.35;;;;;;;16.47;100.00;95866.06;1027494;28;20018;-67
2021/06/23 00:43:44;;;;;;;25.77;20.58;;;;;;;16.48;100.00;95871.03;1026811;28;20022;-67
2021/06/23 00:44:15;;;;;;;35.40;23.27;;;;;;;16.50;100.00;95870.75;1026626;28;20019;-67
2021/06/23 00:44:45;;;;;;;32.90;23.08;;;;;;;16.52;100.00;95870.44;1026241;28;20015;-67
2021/06/23 00:45:16;;;;;;;29.38;22.85;;;;;;;16.45;100.00;95863.69;1030788;28;20019;-67
2021/06/23 00:45:47;;;;;;;31.08;23.85;;;;;;;16.53;100.00;95872.00;1030690;28;20659;-68
2021/06/23 00:46:17;;;;;;;35.78;24.65;;;;;;;16.45;100.00;95863.69;1026671;28;20026;-67
2021/06/23 00:46:47;;;;;;;27.08;20.30;;;;;;;16.53;100.00;95875.44;1029134;28;20058;-67
2021/06/23 00:47:18;;;;;;;26.17;21.02;;;;;;;16.57;100.00;95870.34;1022835;28;20019;-67
2021/06/23 00:47:50;;;;;;;31.90;23.27;;;;;;;16.54;100.00;95861.13;1022678;29;20526;-68
2021/06/23 00:48:27;;;;;;;29.27;20.20;;;;;;;16.50;100.00;95854.88;1024583;28;20070;-66
2021/06/23 00:48:57;;;;;;;40.97;25.95;;;;;;;16.56;100.00;95872.19;1026631;28;20045;-67
2021/06/23 00:49:29;;;;;;;30.10;22.92;;;;;;;16.57;100.00;95875.66;1026753;28;20831;-67
2021/06/23 00:50:09;;;;;;;28.15;20.25;;;;;;;16.55;100.00;95870.63;1024836;28;20468;-66
2021/06/23 00:50:41;;;;;;;27.38;21.13;;;;;;;16.57;100.00;95865.84;1022855;29;20062;-67
2021/06/23 00:51:11;;;;;;;34.92;23.45;;;;;;;16.61;100.00;95869.47;1030565;28;20022;-66
2021/06/23 00:51:42;;;;;;;32.15;22.58;;;;;;;16.61;100.00;95861.50;1026324;28;20061;-67
2021/06/23 00:52:12;;;;;;;31.83;22.60;;;;;;;16.62;100.00;95867.59;1030806;28;20026;-67
2021/06/23 00:52:43;;;;;;;32.38;21.85;;;;;;;16.62;100.00;95863.06;1030127;28;20026;-67
2021/06/23 00:53:13;;;;;;;27.60;20.20;;;;;;;16.61;100.00;95864.16;1031767;28;20105;-65
2021/06/23 00:53:44;;;;;;;27.67;21.17;;;;;;;16.62;100.00;95868.38;1034692;28;20040;-66
2021/06/23 00:54:14;;;;;;;28.77;22.02;;;;;;;16.62;100.00;95862.28;1026628;28;20026;-69
2021/06/23 00:54:49;;;;;;;28.25;20.65;;;;;;;16.57;100.00;95865.06;1027567;28;20019;-67
2021/06/23 00:55:23;;;;;;;35.33;24.08;;;;;;;16.60;100.00;95857.28;1030266;28;20034;-67
2021/06/23 00:55:55;;;;;;;26.20;19.70;;;;;;;16.61;100.00;95866.03;1026660;28;20039;-68
2021/06/23 00:56:29;;;;;;;25.85;20.33;;;;;;;16.59;100.00;95866.31;1022634;29;20058;-69
2021/06/23 00:57:00;;;;;;;26.85;20.38;;;;;;;16.60;100.00;95867.91;1029517;28;20030;-68
2021/06/23 00:57:30;;;;;;;27.77;21.20;;;;;;;16.53;100.00;95856.91;1034776;28;20017;-68
2021/06/23 00:58:02;;;;;;;24.45;20.13;;;;;;;16.57;100.00;95859.75;1029709;28;20065;-67
2021/06/23 00:58:32;;;;;;;30.00;21.27;;;;;;;16.60;100.00;95864.44;1028181;28;20558;-67
2021/06/23 00:59:03;;;;;;;29.83;21.42;;;;;;;16.62;100.00;95868.38;1026799;28;20026;-68
2021/06/23 00:59:34;;;;;;;33.25;23.65;;;;;;;16.62;100.00;95863.06;1030575;28;20077;-67
2021/06/23 01:00:05;;;;;;;31.33;22.35;;;;;;;16.63;100.00;95866.50;1030557;28;20622;-66
2021/06/23 01:00:35;;;;;;;38.17;24.08;;;;;;;16.59;100.00;95866.31;1026893;28;20479;-68
2021/06/23 01:01:08;;;;;;;30.10;21.40;;;;;;;16.62;100.00;95873.66;1027118;28;20046;-66
2021/06/23 01:01:40;;;;;;;33.53;22.88;;;;;;;16.64;100.00;95870.72;1026587;28;20492;-67
2021/06/23 01:02:12;;;;;;;31.80;22.17;;;;;;;16.62;100.00;95868.38;1022932;28;20034;-68
2021/06/23 01:02:42;;;;;;;31.77;23.45;;;;;;;16.62;100.00;95870.22;1026729;28;20038;-67
2021/06/23 01:03:12;;;;;;;30.63;21.58;;;;;;;16.67;100.00;95876.22;1022022;29;20111;-69
2021/06/23 01:03:43;;;;;;;27.50;19.83;;;;;;;16.67;100.00;95876.22;1024992;28;20023;-68
2021/06/23 01:04:14;;;;;;;23.38;18.63;;;;;;;16.68;100.00;95871.69;1026586;28;20098;-67
2021/06/23 01:04:44;;;;;;;24.40;18.98;;;;;;;16.63;100.00;95874.44;1030421;28;20034;-67
2021/06/23 01:05:18;;;;;;;31.85;21.98;;;;;;;16.65;100.00;95873.06;1030381;28;20025;-68
2021/06/23 01:05:48;;;;;;;30.25;21.52;;;;;;;16.61;100.00;95874.75;1030676;28;20086;-66
2021/06/23 01:06:19;;;;;;;31.20;20.52;;;;;;;16.65;100.00;95867.78;1026683;28;20117;-67
2021/06/23 01:06:49;;;;;;;25.65;19.98;;;;;;;16.61;100.00;95863.38;1026067;28;20081;-66
2021/06/23 01:07:21;;;;;;;27.73;20.98;;;;;;;16.66;100.00;95864.03;1026790;28;20054;-67
2021/06/23 01:07:51;;;;;;;40.17;24.00;;;;;;;16.65;100.00;95872.28;1026437;28;20033;-67
2021/06/23 01:08:22;;;;;;;30.98;23.25;;;;;;;16.66;100.00;95879.94;1026814;28;20038;-68
2021/06/23 01:08:52;;;;;;;30.77;21.27;;;;;;;16.60;100.00;95870.53;1031308;28;20034;-67
2021/06/23 01:09:23;;;;;;;27.50;21.15;;;;;;;16.65;100.00;95872.28;1028041;28;20058;-68
2021/06/23 01:09:55;;;;;;;32.15;21.42;;;;;;;16.65;100.00;95878.38;1026436;28;20015;-68
2021/06/23 01:10:31;;;;;;;28.42;20.20;;;;;;;16.65;100.00;95878.38;1026403;28;20484;-68
2021/06/23 01:11:07;;;;;;;27.80;20.42;;;;;;;16.64;100.00;95876.81;1024865;28;20106;-67
2021/06/23 01:11:41;;;;;;;39.53;24.00;;;;;;;16.59;100.00;95863.66;1030079;28;20539;-67
2021/06/23 01:12:26;;;;;;;29.90;21.27;;;;;;;16.64;100.00;95882.13;1024689;28;20023;-69
2021/06/23 01:13:27;;;;;;;31.70;22.40;;;;;;;16.62;100.00;95878.97;1024539;28;20023;-67
2021/06/23 01:14:05;;;;;;;26.83;19.85;;;;;;;16.55;100.00;95875.16;1039013;28;20372;-68
2021/06/23 01:14:35;;;;;;;26.58;20.35;;;;;;;16.57;100.00;95876.44;1042768;28;20025;-67
2021/06/23 01:15:06;;;;;;;32.28;22.55;;;;;;;16.57;100.00;95873.78;1034601;28;20699;-68
2021/06/23 01:15:37;;;;;;;26.55;20.60;;;;;;;16.57;100.00;95873.78;1030530;28;20018;-67
2021/06/23 01:16:09;;;;;;;32.25;21.65;;;;;;;16.59;100.00;95874.25;1026598;28;20122;-69
2021/06/23 01:16:39;;;;;;;35.50;23.98;;;;;;;16.59;100.00;95879.56;1030057;28;20477;-67
2021/06/23 01:17:10;;;;;;;31.50;22.05;;;;;;;16.62;100.00;95883.47;1026470;28;20027;-68
2021/06/23 01:17:40;;;;;;;24.42;18.92;;;;;;;16.60;100.00;95875.84;1026695;28;20077;-66
2021/06/23 01:18:11;;;;;;;26.67;20.15;;;;;;;16.61;100.00;95881.91;1022307;28;20042;-69
2021/06/23 01:18:42;;;;;;;24.90;18.52;;;;;;;16.62;100.00;95876.31;1022766;29;20041;-67
2021/06/23 01:19:12;;;;;;;32.60;22.50;;;;;;;16.64;100.00;95882.13;1022908;28;20547;-67
2021/06/23 01:19:43;;;;;;;26.15;21.48;;;;;;;16.65;100.00;95872.28;1027118;28;20023;-68
2021/06/23 01:20:14;;;;;;;23.00;20.35;;;;;;;16.65;100.00;95875.72;1030032;28;20030;-67
2021/06/23 01:20:45;;;;;;;26.23;20.23;;;;;;;16.66;100.00;95873.84;1030620;28;20033;-67
2021/06/23 01:21:15;;;;;;;30.50;22.73;;;;;;;16.64;100.00;95876.81;1030925;28;20472;-68
2021/06/23 01:21:46;;;;;;;35.92;23.35;;;;;;;16.65;100.00;95878.38;1035053;28;20033;-67
2021/06/23 01:22:17;;;;;;;29.83;22.02;;;;;;;16.66;100.00;95877.28;1037349;28;20549;-66
2021/06/23 01:22:47;;;;;;;25.50;19.95;;;;;;;16.65;100.00;95878.38;1038177;28;20018;-68
2021/06/23 01:23:18;;;;;;;22.17;19.65;;;;;;;16.69;100.00;95874.03;1032850;28;20026;-69
2021/06/23 01:23:48;;;;;;;29.38;21.10;;;;;;;16.69;100.00;95873.25;1040512;28;20086;-67
2021/06/23 01:24:19;;;;;;;26.85;19.80;;;;;;;16.64;100.00;95874.16;1045848;28;20029;-68
2021/06/23 01:24:52;;;;;;;24.73;18.77;;;;;;;16.65;100.00;95877.59;1040167;28;20022;-68
2021/06/23 01:25:23;;;;;;;38.30;22.73;;;;;;;16.67;100.00;95880.75;1041588;28;20087;-68
2021/06/23 01:25:53;;;;;;;30.45;22.50;;;;;;;16.65;100.00;95873.06;1033585;28;20022;-68
2021/06/23 01:26:23;;;;;;;26.00;20.45;;;;;;;16.66;100.00;95879.16;1028376;28;20035;-68
2021/06/23 01:26:54;;;;;;;29.35;21.08;;;;;;;16.63;100.00;95871.78;1029779;28;20019;-67
2021/06/23 01:27:24;;;;;;;28.45;20.92;;;;;;;16.65;100.00;95870.41;1031433;28;20026;-66
2021/06/23 01:27:55;;;;;;;24.38;19.92;;;;;;;16.67;100.00;95875.44;1031435;28;20479;-68
2021/06/23 01:28:25;;;;;;;30.02;20.13;;;;;;;16.68;100.00;95867.19;1035083;28;20064;-69
2021/06/23 01:28:56;;;;;;;26.27;18.98;;;;;;;16.65;100.00;95865.13;1039346;28;20474;-67
2021/06/23 01:29:26;;;;;;;24.90;17.77;;;;;;;16.69;100.00;95874.03;1027583;28;20941;-68
2021/06/23 01:29:57;;;;;;;25.27;19.60;;;;;;;16.66;100.00;95869.34;1032798;28;20602;-67
2021/06/23 01:30:27;;;;;;;31.90;19.30;;;;;;;16.68;100.00;95867.19;1026655;28;20535;-69
2021/06/23 01:31:00;;;;;;;30.02;21.52;;;;;;;16.63;100.00;95862.00;1026118;28;20063;-67
2021/06/23 01:31:34;;;;;;;33.22;22.05;;;;;;;16.69;100.00;95868.75;1026309;28;20027;-64
2021/06/23 01:32:08;;;;;;;28.58;21.60;;;;;;;16.70;100.00;95869.56;1023622;28;20026;-67
2021/06/23 01:32:38;;;;;;;31.92;22.42;;;;;;;16.70;100.00;95870.31;1028321;28;20027;-67
2021/06/23 01:33:09;;;;;;;29.48;22.05;;;;;;;16.69;100.00;95874.03;1031595;28;20472;-67
2021/06/23 01:33:40;;;;;;;26.08;20.70;;;;;;;16.70;100.00;95867.69;1028747;28;20353;-67
2021/06/23 01:34:11;;;;;;;32.22;23.40;;;;;;;16.74;100.00;95873.16;1035426;28;20036;-67
2021/06/23 01:34:42;;;;;;;33.60;22.55;;;;;;;16.72;100.00;95872.66;1031259;28;20026;-68
2021/06/23 01:35:14;;;;;;;27.58;19.55;;;;;;;16.72;100.00;95873.44;1027570;28;20037;-67
2021/06/23 01:35:45;;;;;;;25.50;19.95;;;;;;;16.70;100.00;95874.84;1030683;28;20029;-68
2021/06/23 01:36:19;;;;;;;29.25;21.33;;;;;;;16.62;100.00;95862.28;1031924;28;20025;-67
2021/06/23 01:36:50;;;;;;;30.27;21.73;;;;;;;16.70;100.00;95874.84;1031925;28;20026;-67
2021/06/23 01:37:20;;;;;;;32.40;24.02;;;;;;;16.69;100.00;95868.75;1036182;28;20026;-68
2021/06/23 01:37:51;;;;;;;27.73;19.20;;;;;;;16.63;100.00;95863.84;1042835;28;20025;-67
2021/06/23 01:38:21;;;;;;;34.97;24.52;;;;;;;16.66;100.00;95868.56;1035958;28;20026;-68
2021/06/23 01:38:52;;;;;;;32.25;23.05;;;;;;;16.66;100.00;95871.19;1031055;28;20065;-67
2021/06/23 01:39:22;;;;;;;32.42;23.10;;;;;;;16.67;100.00;95865.63;1029088;28;20106;-67
2021/06/23 01:39:56;;;;;;;21.13;18.38;;;;;;;16.62;100.00;95868.38;1027436;28;20469;-68
2021/06/23 01:40:26;;;;;;;23.73;19.05;;;;;;;16.55;100.00;95857.41;1032152;28;20022;-67
2021/06/23 01:40:57;;;;;;;28.65;22.63;;;;;;;16.63;100.00;95864.66;1034955;28;20018;-67
2021/06/23 01:41:27;;;;;;;30.20;23.10;;;;;;;16.65;100.00;95867.00;1035871;28;20085;-69
2021/06/23 01:41:58;;;;;;;30.08;21.27;;;;;;;16.67;100.00;95867.50;1035388;28;20570;-67
2021/06/23 01:42:28;;;;;;;22.13;19.45;;;;;;;16.59;100.00;95853.06;1031406;28;20522;-67
2021/06/23 01:42:59;;;;;;;24.55;19.80;;;;;;;16.64;100.00;95866.22;1030517;28;20030;-67
2021/06/23 01:43:29;;;;;;;30.02;20.95;;;;;;;16.61;100.00;95861.50;1027176;28;20523;-68
2021/06/23 01:44:01;;;;;;;30.00;23.45;;;;;;;16.55;100.00;95849.44;1031463;28;20022;-67
2021/06/23 01:44:31;;;;;;;25.13;19.20;;;;;;;16.55;100.00;95854.75;1020499;28;20556;-67
2021/06/23 01:45:03;;;;;;;23.33;19.52;;;;;;;16.60;100.00;95859.94;1019350;29;20028;-69
2021/06/23 01:45:33;;;;;;;24.10;19.10;;;;;;;16.60;100.00;95859.94;1020500;29;20019;-64
2021/06/23 01:46:04;;;;;;;21.98;19.67;;;;;;;16.57;100.00;95849.94;1020872;28;20019;-67
2021/06/23 01:46:34;;;;;;;29.30;21.33;;;;;;;16.64;100.00;95857.50;1022490;28;20082;-67
2021/06/23 01:47:05;;;;;;;27.23;21.60;;;;;;;16.66;100.00;95857.94;1023167;28;20027;-67
2021/06/23 01:47:35;;;;;;;31.35;22.08;;;;;;;16.65;100.00;95859.03;1027349;28;20023;-67
2021/06/23 01:48:07;;;;;;;33.53;22.65;;;;;;;16.65;100.00;95857.19;1027097;28;20057;-67
2021/06/23 01:48:37;;;;;;;19.92;17.65;;;;;;;16.67;100.00;95854.25;1031633;28;20018;-67
2021/06/23 01:49:08;;;;;;;24.08;19.58;;;;;;;16.63;100.00;95862.00;1031299;28;20022;-66
2021/06/23 01:49:40;;;;;;;25.38;20.10;;;;;;;16.64;100.00;95858.25;1028016;28;20516;-67
2021/06/23 01:50:12;;;;;;;25.02;20.17;;;;;;;16.64;100.00;95855.63;1035386;28;20033;-67
2021/06/23 01:50:52;;;;;;;25.15;20.67;;;;;;;16.64;100.00;95849.53;1028339;28;20007;-67
2021/06/23 01:51:23;;;;;;;28.23;20.25;;;;;;;16.68;100.00;95850.50;1037113;28;20105;-67
2021/06/23 01:51:53;;;;;;;25.70;19.95;;;;;;;16.66;100.00;95848.13;1039407;28;20410;-67
2021/06/23 01:52:24;;;;;;;33.03;22.38;;;;;;;16.66;100.00;95853.44;1030541;28;20015;-67
2021/06/23 01:52:54;;;;;;;28.48;21.73;;;;;;;16.67;100.00;95854.25;1030491;28;20054;-66
2021/06/23 01:53:28;;;;;;;36.25;23.67;;;;;;;16.68;100.00;95856.56;1031194;28;20022;-68
2021/06/23 01:53:58;;;;;;;27.85;21.30;;;;;;;16.72;100.00;95856.75;1031440;28;20029;-67
2021/06/23 01:54:28;;;;;;;36.25;23.95;;;;;;;16.70;100.00;95854.44;1031621;28;20034;-67
2021/06/23 01:54:59;;;;;;;30.80;20.98;;;;;;;16.67;100.00;95855.03;1031343;28;20010;-66
2021/06/23 01:55:30;;;;;;;28.33;21.85;;;;;;;16.68;100.00;95856.56;1028352;28;20026;-67
2021/06/23 01:56:01;;;;;;;27.30;20.40;;;;;;;16.63;100.00;95846.09;1031500;28;20414;-67
2021/06/23 01:56:31;;;;;;;25.88;19.83;;;;;;;16.71;100.00;95856.00;1027158;28;20015;-67
2021/06/23 01:57:07;;;;;;;25.17;19.75;;;;;;;16.66;100.00;95845.47;1027321;28;20015;-67
2021/06/23 01:57:39;;;;;;;35.80;23.90;;;;;;;16.70;100.00;95851.00;1023223;29;20019;-67
2021/06/23 01:58:11;;;;;;;27.38;21.25;;;;;;;16.70;100.00;95851.78;1024005;28;20474;-66
2021/06/23 01:58:42;;;;;;;22.83;17.80;;;;;;;16.68;100.00;95848.63;1023125;28;20019;-66
2021/06/23 01:59:13;;;;;;;25.17;19.95;;;;;;;16.69;100.00;95846.75;1024502;28;20373;-66
2021/06/23 01:59:43;;;;;;;22.23;17.73;;;;;;;16.69;100.00;95842.25;1024107;28;20062;-66
2021/06/23 02:00:14;;;;;;;25.08;18.58;;;;;;;16.67;100.00;95847.06;1023678;28;20035;-67
2021/06/23 02:00:59;;;;;;;23.00;18.17;;;;;;;16.66;100.00;95847.34;1026894;28;20114;-68
2021/06/23 02:02:00;;;;;;;23.65;17.83;;;;;;;16.70;100.00;95848.34;1029282;28;20509;-67
2021/06/23 02:02:33;;;;;;;25.70;19.35;;;;;;;16.67;100.00;95849.72;1042319;28;20409;-67
2021/06/23 02:03:18;;;;;;;26.05;20.63;;;;;;;16.62;100.00;95841.09;1035082;28;20014;-67
2021/06/23 02:03:55;;;;;;;22.40;18.05;;;;;;;16.65;100.00;95846.56;1034508;28;20029;-64
2021/06/23 02:04:25;;;;;;;22.77;17.70;;;;;;;16.61;100.00;95840.31;1035297;28;20013;-67
2021/06/23 02:05:13;;;;;;;18.13;16.02;;;;;;;16.66;100.00;95844.72;1041582;28;20107;-68
2021/06/23 02:06:04;;;;;;;21.98;18.55;;;;;;;16.60;100.00;95844.06;1044914;28;20604;-67
2021/06/23 02:06:46;;;;;;;29.75;19.20;;;;;;;16.59;100.00;95839.81;1039353;28;20763;-67
2021/06/23 02:07:50;;;;;;;20.90;17.55;;;;;;;16.61;100.00;95842.19;1039326;28;20048;-67
2021/06/23 02:08:31;;;;;;;22.42;17.50;;;;;;;16.57;100.00;95849.94;1038357;28;20061;-68
2021/06/23 02:09:26;;;;;;;25.42;19.70;;;;;;;16.55;100.00;95848.66;1027448;28;20074;-66
2021/06/23 02:10:05;;;;;;;22.52;18.50;;;;;;;16.54;100.00;95849.75;1035291;28;20489;-68
2021/06/23 02:10:59;;;;;;;27.00;18.42;;;;;;;16.46;100.00;95838.78;1035950;28;20399;-67
2021/06/23 02:11:36;;;;;;;25.35;19.00;;;;;;;16.52;100.00;95847.38;1039475;28;20406;-68
2021/06/23 02:12:24;;;;;;;26.30;19.98;;;;;;;16.54;100.00;95847.09;1035170;28;20492;-67
2021/06/23 02:13:57;;;;;;;24.27;19.10;;;;;;;16.57;100.00;95847.28;1032339;28;20022;-67
2021/06/23 02:14:40;;;;;;;27.67;20.13;;;;;;;16.52;100.00;95828.84;1034815;28;20570;-68
2021/06/23 02:15:10;;;;;;;22.02;17.88;;;;;;;16.54;100.00;95842.59;1026998;28;20014;-67
2021/06/23 02:15:41;;;;;;;27.58;20.40;;;;;;;16.59;100.00;95841.69;1028282;28;20042;-66
2021/06/23 02:16:12;;;;;;;26.65;20.13;;;;;;;16.54;100.00;95834.63;1026170;28;20018;-67
2021/06/23 02:16:42;;;;;;;24.25;19.52;;;;;;;16.58;100.00;95848.84;1026536;28;20027;-67
2021/06/23 02:17:13;;;;;;;25.60;20.42;;;;;;;16.59;100.00;95849.63;1027217;28;20023;-68
2021/06/23 02:17:43;;;;;;;30.10;22.45;;;;;;;16.57;100.00;95842.00;1027336;28;20010;-66
2021/06/23 02:18:16;;;;;;;23.73;19.48;;;;;;;16.56;100.00;95848.34;1026706;28;20031;-67
2021/06/23 02:18:46;;;;;;;20.33;18.20;;;;;;;16.55;100.00;95846.00;1027503;28;20031;-66
2021/06/23 02:19:17;;;;;;;24.45;19.65;;;;;;;16.53;100.00;95843.66;1028515;28;20026;-67
2021/06/23 02:19:49;;;;;;;28.02;20.15;;;;;;;16.47;100.00;95839.56;1026647;28;20023;-68
2021/06/23 02:20:23;;;;;;;25.00;20.17;;;;;;;16.54;100.00;95853.19;1027552;28;20034;-66
2021/06/23 02:20:54;;;;;;;27.27;20.88;;;;;;;16.53;100.00;95848.16;1023826;28;20026;-66
2021/06/23 02:21:25;;;;;;;29.42;20.92;;;;;;;16.54;100.00;95847.88;1023300;29;20065;-67
2021/06/23 02:21:55;;;;;;;26.45;21.17;;;;;;;16.54;100.00;95853.19;1026832;28;20047;-67
2021/06/23 02:22:31;;;;;;;23.98;19.55;;;;;;;16.53;100.00;95843.66;1027045;28;20026;-67
2021/06/23 02:23:04;;;;;;;23.88;20.02;;;;;;;16.49;100.00;95842.69;1022837;28;20033;-68
2021/06/23 02:23:40;;;;;;;26.55;20.75;;;;;;;16.56;100.00;95852.88;1023626;28;20023;-67
2021/06/23 02:24:10;;;;;;;28.33;20.33;;;;;;;16.50;100.00;95845.06;1031037;28;20105;-67
2021/06/23 02:24:41;;;;;;;32.33;21.38;;;;;;;16.52;100.00;95855.34;1031000;28;20522;-67
2021/06/23 02:25:12;;;;;;;36.42;21.40;;;;;;;16.48;100.00;95849.06;1025274;28;20034;-67
2021/06/23 02:25:42;;;;;;;40.33;20.98;;;;;;;16.53;100.00;95848.16;1027259;28;20492;-66
2021/06/23 02:26:16;;;;;;;29.20;21.60;;;;;;;16.55;100.00;95852.09;1031159;28;20038;-67
2021/06/23 02:26:46;;;;;;;28.63;21.13;;;;;;;16.55;100.00;95849.44;1027163;28;20388;-68
2021/06/23 02:27:17;;;;;;;28.40;22.40;;;;;;;16.57;100.00;95849.94;1027308;28;20089;-67
2021/06/23 02:27:47;;;;;;;23.50;19.67;;;;;;;16.53;100.00;95851.59;1022967;29;20098;-69
2021/06/23 02:28:18;;;;;;;24.63;20.27;;;;;;;16.55;100.00;95846.78;1026856;28;20050;-65